createdAt,value
2023-03-07T00:00:34.850Z,100.00
2023-03-07T00:02:36.333Z,100.00
2023-03-07T00:04:37.944Z,100.00
2023-03-07T00:06:39.417Z,100.00
2023-03-07T00:08:40.925Z,100.00
2023-03-07T00:10:42.356Z,100.00
2023-03-07T00:12:43.972Z,100.00
2023-03-07T00:14:45.458Z,100.00
2023-03-07T00:16:50.645Z,100.00
2023-03-07T00:18:52.352Z,100.00
2023-03-07T00:20:59.106Z,100.00
2023-03-07T00:23:00.608Z,100.00
2023-03-07T00:25:02.802Z,100.00
2023-03-07T00:27:04.616Z,100.00
2023-03-07T00:29:10.331Z,100.00
2023-03-07T00:31:11.911Z,100.00
2023-03-07T00:33:13.384Z,100.00
2023-03-07T00:35:14.915Z,100.00
2023-03-07T00:37:16.449Z,100.00
2023-03-07T00:39:17.931Z,100.00
2023-03-07T00:41:27.437Z,100.00
2023-03-07T00:43:29.507Z,100.00
2023-03-07T00:45:31.017Z,100.00
2023-03-07T00:47:32.485Z,100.00
2023-03-07T00:49:34.050Z,100.00
2023-03-07T00:51:35.492Z,100.00
2023-03-07T00:53:37.483Z,100.00
2023-03-07T00:55:39.201Z,100.00
2023-03-07T00:57:40.698Z,100.00
2023-03-07T00:59:42.178Z,100.00
2023-03-07T01:01:43.807Z,100.00
2023-03-07T01:03:45.424Z,100.00
2023-03-07T01:05:46.984Z,100.00
2023-03-07T01:07:48.523Z,100.00
2023-03-07T01:09:53.299Z,100.00
2023-03-07T01:11:54.767Z,100.00
2023-03-07T01:13:58.004Z,100.00
2023-03-07T01:16:14.248Z,100.00
2023-03-07T01:18:15.771Z,100.00
2023-03-07T01:20:17.955Z,100.00
2023-03-07T01:22:19.401Z,100.00
2023-03-07T01:24:20.876Z,100.00
2023-03-07T01:26:25.069Z,100.00
2023-03-07T01:28:26.540Z,100.00
2023-03-07T01:30:28.004Z,100.00
2023-03-07T01:32:29.593Z,100.00
2023-03-07T01:34:31.081Z,100.00
2023-03-07T01:36:34.826Z,100.00
2023-03-07T01:38:36.306Z,100.00
2023-03-07T01:40:38.520Z,100.00
2023-03-07T01:42:40.002Z,100.00
2023-03-07T01:45:12.316Z,100.00
2023-03-07T01:47:13.834Z,100.00
2023-03-07T01:49:21.217Z,100.00
2023-03-07T01:51:23.598Z,100.00
2023-03-07T01:53:25.105Z,100.00
2023-03-07T01:55:32.961Z,100.00
2023-03-07T01:57:39.481Z,100.00
2023-03-07T01:59:46.110Z,100.00
2023-03-07T02:01:48.975Z,100.00
2023-03-07T02:03:58.276Z,100.00
2023-03-07T02:06:04.052Z,100.00
2023-03-07T02:08:09.635Z,100.00
2023-03-07T02:10:14.158Z,100.00
2023-03-07T02:12:15.959Z,100.00
2023-03-07T02:14:17.420Z,100.00
2023-03-07T02:16:19.953Z,100.00
2023-03-07T02:18:26.835Z,100.00
2023-03-07T02:20:28.250Z,100.00
2023-03-07T02:22:29.767Z,100.00
2023-03-07T02:25:00.466Z,100.00
2023-03-07T02:27:01.956Z,100.00
2023-03-07T02:29:03.555Z,100.00
2023-03-07T02:31:07.318Z,100.00
2023-03-07T02:33:08.854Z,100.00
2023-03-07T02:35:23.084Z,100.00
2023-03-07T02:37:27.356Z,100.00
2023-03-07T02:39:30.349Z,100.00
2023-03-07T02:41:33.060Z,100.00
2023-03-07T02:43:34.515Z,100.00
2023-03-07T02:45:36.026Z,100.00
2023-03-07T02:47:37.762Z,100.00
2023-03-07T02:49:39.230Z,100.00
2023-03-07T02:51:40.741Z,100.00
2023-03-07T02:53:42.308Z,100.00
2023-03-07T02:55:43.834Z,100.00
2023-03-07T02:57:45.525Z,100.00
2023-03-07T02:59:47.641Z,100.00
2023-03-07T03:01:49.175Z,100.00
2023-03-07T03:03:50.790Z,100.00
2023-03-07T03:05:52.234Z,100.00
2023-03-07T03:07:53.777Z,100.00
2023-03-07T03:09:55.315Z,100.00
2023-03-07T03:11:57.388Z,100.00
2023-03-07T03:13:58.867Z,100.00
2023-03-07T03:16:00.423Z,100.00
2023-03-07T03:18:01.937Z,100.00
2023-03-07T03:20:11.795Z,100.00
2023-03-07T03:22:13.584Z,100.00
2023-03-07T03:24:15.050Z,100.00
2023-03-07T03:26:16.584Z,100.00
2023-03-07T03:28:18.046Z,100.00
2023-03-07T03:30:19.500Z,100.00
2023-03-07T03:32:21.040Z,100.00
2023-03-07T03:34:22.532Z,100.00
2023-03-07T03:36:25.845Z,100.00
2023-03-07T03:38:27.379Z,100.00
2023-03-07T03:40:28.873Z,100.00
2023-03-07T03:42:30.345Z,100.00
2023-03-07T03:44:31.797Z,100.00
2023-03-07T03:46:33.264Z,100.00
2023-03-07T03:48:34.783Z,100.00
2023-03-07T03:50:36.316Z,100.00
2023-03-07T03:52:37.797Z,100.00
2023-03-07T03:54:39.272Z,100.00
2023-03-07T03:56:40.839Z,100.00
2023-03-07T03:58:42.455Z,100.00
2023-03-07T04:00:44.540Z,100.00
2023-03-07T04:02:48.996Z,100.00
2023-03-07T04:04:50.495Z,100.00
2023-03-07T04:06:52.076Z,100.00
2023-03-07T04:08:54.657Z,100.00
2023-03-07T04:10:56.198Z,100.00
2023-03-07T04:12:57.683Z,100.00
2023-03-07T04:14:59.125Z,100.00
2023-03-07T04:17:00.598Z,100.00
2023-03-07T04:19:02.739Z,100.00
2023-03-07T04:21:05.945Z,100.00
2023-03-07T04:23:07.413Z,100.00
2023-03-07T04:25:09.308Z,100.00
2023-03-07T04:27:10.824Z,100.00
2023-03-07T04:29:12.561Z,100.00
2023-03-07T04:31:19.478Z,100.00
2023-03-07T04:33:21.076Z,100.00
2023-03-07T04:35:22.569Z,99.82
2023-03-07T04:37:24.318Z,99.94
2023-03-07T04:39:25.988Z,99.71
2023-03-07T04:41:27.568Z,99.59
2023-03-07T04:43:29.113Z,99.61
2023-03-07T04:45:33.015Z,99.70
2023-03-07T04:47:34.450Z,99.20
2023-03-07T04:49:36.067Z,99.28
2023-03-07T04:51:37.810Z,98.97
2023-03-07T04:53:39.283Z,99.02
2023-03-07T04:55:40.733Z,99.05
2023-03-07T04:57:42.330Z,98.93
2023-03-07T04:59:43.858Z,98.90
2023-03-07T05:01:45.312Z,98.96
2023-03-07T05:03:46.788Z,98.62
2023-03-07T05:05:48.321Z,98.56
2023-03-07T05:07:49.769Z,98.46
2023-03-07T05:09:51.269Z,98.39
2023-03-07T05:11:53.696Z,98.42
2023-03-07T05:13:55.210Z,98.12
2023-03-07T05:15:58.509Z,97.85
2023-03-07T05:18:00.280Z,97.64
2023-03-07T05:20:01.772Z,97.27
2023-03-07T05:22:03.298Z,97.29
2023-03-07T05:24:04.910Z,96.99
2023-03-07T05:26:06.416Z,96.21
2023-03-07T05:28:08.097Z,95.78
2023-03-07T05:30:10.788Z,95.27
2023-03-07T05:32:12.393Z,95.08
2023-03-07T05:34:15.901Z,94.89
2023-03-07T05:36:17.644Z,94.79
2023-03-07T05:38:19.138Z,94.55
2023-03-07T05:40:20.767Z,94.22
2023-03-07T05:42:22.234Z,94.19
2023-03-07T05:44:23.720Z,93.97
2023-03-07T05:46:25.459Z,94.05
2023-03-07T05:48:27.180Z,93.60
2023-03-07T05:50:28.685Z,93.66
2023-03-07T05:52:30.177Z,93.67
2023-03-07T05:54:31.650Z,93.46
2023-03-07T05:56:33.108Z,92.91
2023-03-07T05:58:34.580Z,93.21
2023-03-07T06:00:36.045Z,92.67
2023-03-07T06:02:37.586Z,92.45
2023-03-07T06:04:39.092Z,92.17
2023-03-07T06:06:40.573Z,91.70
2023-03-07T06:08:42.023Z,90.46
2023-03-07T06:10:43.524Z,90.40
2023-03-07T06:12:49.664Z,89.72
2023-03-07T06:14:51.141Z,89.57
2023-03-07T06:16:52.615Z,89.36
2023-03-07T06:18:54.064Z,89.32
2023-03-07T06:21:06.621Z,89.04
2023-03-07T06:23:08.133Z,88.43
2023-03-07T06:25:09.871Z,88.32
2023-03-07T06:27:11.417Z,88.27
2023-03-07T06:29:12.969Z,88.30
2023-03-07T06:31:18.047Z,88.51
2023-03-07T06:33:19.651Z,88.09
2023-03-07T06:35:21.389Z,87.67
2023-03-07T06:37:23.084Z,87.51
2023-03-07T06:39:24.718Z,87.18
2023-03-07T06:41:26.198Z,87.14
2023-03-07T06:43:27.936Z,87.29
2023-03-07T06:45:29.785Z,87.53
2023-03-07T06:47:31.405Z,87.59
2023-03-07T06:49:32.963Z,87.46
2023-03-07T06:51:36.800Z,87.53
2023-03-07T06:53:39.207Z,87.26
2023-03-07T06:55:40.742Z,86.48
2023-03-07T06:57:42.280Z,86.61
2023-03-07T06:59:43.873Z,86.78
2023-03-07T07:01:45.395Z,86.81
2023-03-07T07:03:46.996Z,87.16
2023-03-07T07:05:48.505Z,86.56
2023-03-07T07:07:50.148Z,86.57
2023-03-07T07:09:51.876Z,87.01
2023-03-07T07:11:53.317Z,86.39
2023-03-07T07:13:54.762Z,86.40
2023-03-07T07:15:56.357Z,85.93
2023-03-07T07:17:57.806Z,86.18
2023-03-07T07:19:59.290Z,85.94
2023-03-07T07:22:00.786Z,85.83
2023-03-07T07:24:02.280Z,85.96
2023-03-07T07:26:03.803Z,85.80
2023-03-07T07:28:05.287Z,85.48
2023-03-07T07:30:09.704Z,86.01
2023-03-07T07:32:11.357Z,85.57
2023-03-07T07:34:13.056Z,85.62
2023-03-07T07:36:14.602Z,85.63
2023-03-07T07:38:16.106Z,85.10
2023-03-07T07:40:17.898Z,85.93
2023-03-07T07:42:19.328Z,85.80
2023-03-07T07:44:20.848Z,86.47
2023-03-07T07:46:22.415Z,85.91
2023-03-07T07:48:23.958Z,86.01
2023-03-07T07:50:25.562Z,86.01
2023-03-07T07:52:27.074Z,85.47
2023-03-07T07:54:29.014Z,85.61
2023-03-07T07:56:30.571Z,85.48
2023-03-07T07:58:32.091Z,85.13
2023-03-07T08:00:33.605Z,85.38
2023-03-07T08:02:35.743Z,85.31
2023-03-07T08:04:37.236Z,84.55
2023-03-07T08:06:38.741Z,85.16
2023-03-07T08:08:40.234Z,84.95
2023-03-07T08:10:44.106Z,84.64
2023-03-07T08:12:52.851Z,84.50
2023-03-07T08:14:54.322Z,84.02
2023-03-07T08:16:55.854Z,83.84
2023-03-07T08:18:57.832Z,83.81
2023-03-07T08:20:59.829Z,83.75
2023-03-07T08:23:01.327Z,83.89
2023-03-07T08:25:07.208Z,83.67
2023-03-07T08:27:09.336Z,83.34
2023-03-07T08:29:11.116Z,84.18
2023-03-07T08:31:20.607Z,84.16
2023-03-07T08:33:22.227Z,83.53
2023-03-07T08:35:24.991Z,82.56
2023-03-07T08:37:26.497Z,82.42
2023-03-07T08:39:27.971Z,82.87
2023-03-07T08:41:29.530Z,82.48
2023-03-07T08:43:32.540Z,82.89
2023-03-07T08:45:34.139Z,82.52
2023-03-07T08:47:35.741Z,82.70
2023-03-07T08:49:37.516Z,82.92
2023-03-07T08:51:39.006Z,83.19
2023-03-07T08:53:42.887Z,83.21
2023-03-07T08:55:44.589Z,83.63
2023-03-07T08:57:47.475Z,82.58
2023-03-07T08:59:49.230Z,82.03
2023-03-07T09:01:50.778Z,82.17
2023-03-07T09:03:52.308Z,81.87
2023-03-07T09:05:53.806Z,81.61
2023-03-07T09:07:56.016Z,81.50
2023-03-07T09:09:57.498Z,81.76
2023-03-07T09:11:58.992Z,81.71
2023-03-07T09:14:00.468Z,81.54
2023-03-07T09:16:05.735Z,82.25
2023-03-07T09:18:08.361Z,82.58
2023-03-07T09:20:11.701Z,82.34
2023-03-07T09:22:13.202Z,82.15
2023-03-07T09:24:14.649Z,81.82
2023-03-07T09:26:16.251Z,81.87
2023-03-07T09:28:17.820Z,82.54
2023-03-07T09:30:19.310Z,82.54
2023-03-07T09:32:21.164Z,81.91
2023-03-07T09:34:22.715Z,81.75
2023-03-07T09:36:24.201Z,81.29
2023-03-07T09:38:25.701Z,81.41
2023-03-07T09:40:28.041Z,81.61
2023-03-07T09:42:51.190Z,80.68
2023-03-07T09:45:01.916Z,81.79
2023-03-07T09:47:17.164Z,80.42
2023-03-07T09:49:20.967Z,81.48
2023-03-07T09:51:32.572Z,79.86
2023-03-07T09:53:48.194Z,79.79
2023-03-07T09:55:52.743Z,80.65
2023-03-07T09:57:58.602Z,79.53
2023-03-07T10:00:00.030Z,80.20
2023-03-07T10:02:31.617Z,79.78
2023-03-07T10:04:59.550Z,79.58
2023-03-07T10:07:03.945Z,79.16
2023-03-07T10:09:16.385Z,78.37
2023-03-07T10:11:29.140Z,77.65
2023-03-07T10:13:43.076Z,77.81
2023-03-07T10:16:07.261Z,77.64
2023-03-07T10:18:29.935Z,77.73
2023-03-07T10:20:53.474Z,77.86
2023-03-07T10:23:41.134Z,78.38
2023-03-07T10:26:01.459Z,79.62
2023-03-07T10:28:26.845Z,81.23
2023-03-07T10:30:31.917Z,82.63
2023-03-07T10:32:47.332Z,83.24
2023-03-07T10:34:56.598Z,84.59
2023-03-07T10:37:12.533Z,86.05
2023-03-07T10:39:32.230Z,87.98
2023-03-07T10:41:33.729Z,89.35
2023-03-07T10:43:35.223Z,90.55
2023-03-07T10:45:37.940Z,90.96
2023-03-07T10:47:39.998Z,92.37
2023-03-07T10:49:47.098Z,92.88
2023-03-07T10:52:01.949Z,92.98
2023-03-07T10:54:10.495Z,93.57
2023-03-07T10:56:14.972Z,93.64
2023-03-07T10:58:19.732Z,93.85
2023-03-07T11:00:21.661Z,93.53
2023-03-07T11:02:34.881Z,93.83
2023-03-07T11:04:46.337Z,94.25
2023-03-07T11:06:57.235Z,93.46
2023-03-07T11:09:17.085Z,93.53
2023-03-07T11:11:32.175Z,93.32
2023-03-07T11:13:34.035Z,92.86
2023-03-07T11:15:35.583Z,91.98
2023-03-07T11:17:48.258Z,91.42
2023-03-07T11:19:55.147Z,90.80
2023-03-07T11:21:57.747Z,90.21
2023-03-07T11:24:06.292Z,89.76
2023-03-07T11:26:17.281Z,89.71
2023-03-07T11:28:27.169Z,89.92
2023-03-07T11:30:35.653Z,89.23
2023-03-07T11:32:40.189Z,88.71
2023-03-07T11:34:57.832Z,88.69
2023-03-07T11:37:33.535Z,88.05
2023-03-07T11:39:46.138Z,88.22
2023-03-07T11:41:54.986Z,87.76
2023-03-07T11:44:11.901Z,87.45
2023-03-07T11:46:18.557Z,88.81
2023-03-07T11:48:45.738Z,87.08
2023-03-07T11:50:54.557Z,86.48
2023-03-07T11:53:14.780Z,87.19
2023-03-07T11:55:46.655Z,85.96
2023-03-07T11:57:59.934Z,85.75
2023-03-07T12:00:34.800Z,85.45
2023-03-07T12:02:54.114Z,84.62
2023-03-07T12:05:19.347Z,85.30
2023-03-07T12:07:31.491Z,85.50
2023-03-07T12:10:02.521Z,84.49
2023-03-07T12:12:55.753Z,84.73
2023-03-07T12:15:16.085Z,84.80
2023-03-07T12:17:48.804Z,83.39
2023-03-07T12:20:10.719Z,83.34
2023-03-07T12:22:24.048Z,83.65
2023-03-07T12:24:30.827Z,81.90
2023-03-07T12:26:54.983Z,80.82
2023-03-07T12:29:24.666Z,81.08
2023-03-07T12:31:36.718Z,80.30
2023-03-07T12:33:44.265Z,79.30
2023-03-07T12:35:50.287Z,78.47
2023-03-07T12:38:27.486Z,78.05
2023-03-07T12:40:36.806Z,77.08
2023-03-07T12:42:49.127Z,77.98
2023-03-07T12:45:00.911Z,76.68
2023-03-07T12:47:40.006Z,75.35
2023-03-07T12:49:56.534Z,75.29
2023-03-07T12:52:01.770Z,73.41
2023-03-07T12:54:15.190Z,72.85
2023-03-07T12:56:26.453Z,73.83
2023-03-07T12:59:07.475Z,72.76
2023-03-07T13:01:17.769Z,70.61
2023-03-07T13:03:27.107Z,70.01
2023-03-07T13:05:29.735Z,70.19
2023-03-07T13:07:33.842Z,68.81
2023-03-07T13:09:39.426Z,67.03
2023-03-07T13:12:27.097Z,66.40
2023-03-07T13:14:39.360Z,65.22
2023-03-07T13:16:40.911Z,65.92
2023-03-07T13:18:42.450Z,64.76
2023-03-07T13:20:45.069Z,63.93
2023-03-07T13:22:46.495Z,62.94
2023-03-07T13:24:52.476Z,63.18
2023-03-07T13:26:55.235Z,64.02
2023-03-07T13:28:57.514Z,64.43
2023-03-07T13:31:17.647Z,63.14
2023-03-07T13:33:28.821Z,63.45
2023-03-07T13:35:39.246Z,63.07
2023-03-07T13:38:03.748Z,62.76
2023-03-07T13:40:36.933Z,62.26
2023-03-07T13:42:46.436Z,62.16
2023-03-07T13:44:47.899Z,60.32
2023-03-07T13:46:52.440Z,60.31
2023-03-07T13:48:53.886Z,59.87
2023-03-07T13:50:55.297Z,58.81
2023-03-07T13:52:56.780Z,59.03
2023-03-07T13:55:01.320Z,58.40
2023-03-07T13:57:04.194Z,59.08
2023-03-07T13:59:20.555Z,60.88
2023-03-07T14:01:26.725Z,61.70
2023-03-07T14:03:29.998Z,60.87
2023-03-07T14:05:33.370Z,62.22
2023-03-07T14:07:39.850Z,61.39
2023-03-07T14:09:51.708Z,60.86
2023-03-07T14:12:01.975Z,61.14
2023-03-07T14:14:15.866Z,62.79
2023-03-07T14:16:27.132Z,61.09
2023-03-07T14:18:42.032Z,63.34
2023-03-07T14:21:14.475Z,62.06
2023-03-07T14:23:34.950Z,63.99
2023-03-07T14:25:41.899Z,62.44
2023-03-07T14:28:01.613Z,62.60
2023-03-07T14:30:16.191Z,63.00
2023-03-07T14:32:31.771Z,60.52
2023-03-07T14:34:35.903Z,58.66
2023-03-07T14:36:37.488Z,58.58
2023-03-07T14:38:40.971Z,59.75
2023-03-07T14:40:57.286Z,61.56
2023-03-07T14:43:17.001Z,56.44
2023-03-07T14:45:41.576Z,55.20
2023-03-07T14:47:55.261Z,55.79
2023-03-07T14:49:59.717Z,54.06
2023-03-07T14:52:02.901Z,55.23
2023-03-07T14:54:14.772Z,55.05
2023-03-07T14:56:23.536Z,54.42
2023-03-07T14:58:29.672Z,54.49
2023-03-07T15:00:34.674Z,54.80
2023-03-07T15:02:36.193Z,53.97
2023-03-07T15:04:38.781Z,52.62
2023-03-07T15:06:44.304Z,53.12
2023-03-07T15:08:48.748Z,56.15
2023-03-07T15:11:07.775Z,64.58
2023-03-07T15:13:27.456Z,65.21
2023-03-07T15:15:39.797Z,70.22
2023-03-07T15:17:43.997Z,72.71
2023-03-07T15:19:50.527Z,70.76
2023-03-07T15:21:57.797Z,70.02
2023-03-07T15:24:00.047Z,68.56
2023-03-07T15:26:05.192Z,69.36
2023-03-07T15:28:18.117Z,72.28
2023-03-07T15:30:29.493Z,72.30
2023-03-07T15:32:31.040Z,73.21
2023-03-07T15:34:40.072Z,72.18
2023-03-07T15:36:41.557Z,72.03
2023-03-07T15:39:04.838Z,70.99
2023-03-07T15:41:31.618Z,70.85
2023-03-07T15:43:36.251Z,71.71
2023-03-07T15:45:41.163Z,71.39
2023-03-07T15:47:42.669Z,71.98
2023-03-07T15:49:48.282Z,71.40
2023-03-07T15:51:56.004Z,71.91
2023-03-07T15:54:04.016Z,72.13
2023-03-07T15:56:21.544Z,71.62
2023-03-07T15:58:23.306Z,71.22
2023-03-07T16:00:33.308Z,71.76
2023-03-07T16:02:37.719Z,71.95
2023-03-07T16:04:39.593Z,71.60
2023-03-07T16:06:43.549Z,70.99
2023-03-07T16:08:47.877Z,71.07
2023-03-07T16:11:06.742Z,70.79
2023-03-07T16:13:14.082Z,71.27
2023-03-07T16:15:17.612Z,71.17
2023-03-07T16:17:20.675Z,71.50
2023-03-07T16:19:22.603Z,71.51
2023-03-07T16:21:24.558Z,72.57
2023-03-07T16:23:28.755Z,72.74
2023-03-07T16:25:31.755Z,73.05
2023-03-07T16:27:33.837Z,73.71
2023-03-07T16:29:35.308Z,73.85
2023-03-07T16:31:36.839Z,75.27
2023-03-07T16:33:38.460Z,75.53
2023-03-07T16:35:40.866Z,75.91
2023-03-07T16:37:42.592Z,75.98
2023-03-07T16:39:44.099Z,76.02
2023-03-07T16:41:48.296Z,76.60
2023-03-07T16:43:54.798Z,76.92
2023-03-07T16:45:57.270Z,77.05
2023-03-07T16:48:00.743Z,77.05
2023-03-07T16:50:02.317Z,77.30
2023-03-07T16:52:06.501Z,77.59
2023-03-07T16:54:08.234Z,77.55
2023-03-07T16:56:17.557Z,77.63
2023-03-07T16:58:30.992Z,78.31
2023-03-07T17:00:32.792Z,78.89
2023-03-07T17:02:34.296Z,79.09
2023-03-07T17:04:35.840Z,79.11
2023-03-07T17:06:39.771Z,79.12
2023-03-07T17:08:41.491Z,79.48
2023-03-07T17:10:44.855Z,79.76
2023-03-07T17:12:47.370Z,80.33
2023-03-07T17:14:49.245Z,79.93
2023-03-07T17:16:51.019Z,80.52
2023-03-07T17:18:53.235Z,80.80
2023-03-07T17:20:54.794Z,81.21
2023-03-07T17:22:56.290Z,81.40
2023-03-07T17:24:57.994Z,81.79
2023-03-07T17:27:03.553Z,82.06
2023-03-07T17:29:12.801Z,82.46
2023-03-07T17:31:14.412Z,82.67
2023-03-07T17:33:15.943Z,83.15
2023-03-07T17:35:17.547Z,83.44
2023-03-07T17:37:19.833Z,83.17
2023-03-07T17:39:21.805Z,83.70
2023-03-07T17:41:23.272Z,83.94
2023-03-07T17:43:24.753Z,84.08
2023-03-07T17:45:26.313Z,84.71
2023-03-07T17:47:27.753Z,84.53
2023-03-07T17:49:37.211Z,85.44
2023-03-07T17:51:38.931Z,85.92
2023-03-07T17:53:40.453Z,86.03
2023-03-07T17:55:42.037Z,86.41
2023-03-07T17:57:43.580Z,87.11
2023-03-07T17:59:45.085Z,87.61
2023-03-07T18:01:46.589Z,88.16
2023-03-07T18:03:48.057Z,88.03
2023-03-07T18:05:49.555Z,88.48
2023-03-07T18:07:53.543Z,88.03
2023-03-07T18:10:07.435Z,88.36
2023-03-07T18:12:10.001Z,88.95
2023-03-07T18:14:12.642Z,88.28
2023-03-07T18:16:14.303Z,88.78
2023-03-07T18:18:16.279Z,88.91
2023-03-07T18:20:20.104Z,88.91
2023-03-07T18:22:21.560Z,89.22
2023-03-07T18:24:26.469Z,89.13
2023-03-07T18:26:28.707Z,89.37
2023-03-07T18:28:31.210Z,89.75
2023-03-07T18:30:34.156Z,89.64
2023-03-07T18:32:35.672Z,89.54
2023-03-07T18:34:37.518Z,89.16
2023-03-07T18:36:40.608Z,90.12
2023-03-07T18:38:42.999Z,89.95
2023-03-07T18:40:45.960Z,89.74
2023-03-07T18:42:47.487Z,89.91
2023-03-07T18:44:49.036Z,89.67
2023-03-07T18:46:50.541Z,89.69
2023-03-07T18:48:52.397Z,89.82
2023-03-07T18:51:01.738Z,89.83
2023-03-07T18:53:04.212Z,89.76
2023-03-07T18:55:06.059Z,89.94
2023-03-07T18:57:07.501Z,90.33
2023-03-07T18:59:08.958Z,90.40
2023-03-07T19:01:23.256Z,90.12
2023-03-07T19:03:24.768Z,90.15
2023-03-07T19:05:26.246Z,90.02
2023-03-07T19:07:28.573Z,90.05
2023-03-07T19:09:31.582Z,90.64
2023-03-07T19:11:33.593Z,90.47
2023-03-07T19:13:35.680Z,90.31
2023-03-07T19:15:37.195Z,91.07
2023-03-07T19:17:40.350Z,90.66
2023-03-07T19:19:41.781Z,90.97
2023-03-07T19:21:43.320Z,91.01
2023-03-07T19:23:45.669Z,91.37
2023-03-07T19:25:47.869Z,91.19
2023-03-07T19:27:49.383Z,91.50
2023-03-07T19:29:50.898Z,91.44
2023-03-07T19:31:52.468Z,92.32
2023-03-07T19:33:54.565Z,92.13
2023-03-07T19:36:25.607Z,92.69
2023-03-07T19:38:28.503Z,92.58
2023-03-07T19:40:29.983Z,93.25
2023-03-07T19:42:31.479Z,92.81
2023-03-07T19:44:32.937Z,93.02
2023-03-07T19:46:34.586Z,93.48
2023-03-07T19:48:38.380Z,93.52
2023-03-07T19:50:41.090Z,93.44
2023-03-07T19:52:42.564Z,93.67
2023-03-07T19:54:45.444Z,93.49
2023-03-07T19:56:46.998Z,93.31
2023-03-07T19:58:49.028Z,93.57
2023-03-07T20:00:50.554Z,93.41
2023-03-07T20:02:52.071Z,93.02
2023-03-07T20:04:55.416Z,93.35
2023-03-07T20:06:56.885Z,93.09
2023-03-07T20:09:00.060Z,93.38
2023-03-07T20:11:12.112Z,93.36
2023-03-07T20:13:14.728Z,93.66
2023-03-07T20:15:16.301Z,93.10
2023-03-07T20:17:17.761Z,93.20
2023-03-07T20:19:20.644Z,93.62
2023-03-07T20:21:26.233Z,93.87
2023-03-07T20:23:29.269Z,93.48
2023-03-07T20:25:31.215Z,93.60
2023-03-07T20:27:32.700Z,93.43
2023-03-07T20:29:34.529Z,93.56
2023-03-07T20:31:39.123Z,93.78
2023-03-07T20:33:46.039Z,93.85
2023-03-07T20:35:47.700Z,93.97
2023-03-07T20:37:49.223Z,94.11
2023-03-07T20:39:50.728Z,93.99
2023-03-07T20:41:52.240Z,94.05
2023-03-07T20:43:57.067Z,94.38
2023-03-07T20:46:03.183Z,94.27
2023-03-07T20:48:04.642Z,94.14
2023-03-07T20:50:06.476Z,94.67
2023-03-07T20:52:08.012Z,94.43
2023-03-07T20:54:17.803Z,94.56
2023-03-07T20:56:22.312Z,94.82
2023-03-07T20:58:24.980Z,94.67
2023-03-07T21:00:26.622Z,94.82
2023-03-07T21:02:28.130Z,94.52
2023-03-07T21:04:30.052Z,94.80
2023-03-07T21:06:33.569Z,94.79
2023-03-07T21:08:36.594Z,94.65
2023-03-07T21:10:38.118Z,94.80
2023-03-07T21:12:39.642Z,94.51
2023-03-07T21:14:41.186Z,95.12
2023-03-07T21:16:45.802Z,95.26
2023-03-07T21:18:47.987Z,94.76
2023-03-07T21:20:49.622Z,94.93
2023-03-07T21:22:51.099Z,94.96
2023-03-07T21:24:52.551Z,95.05
2023-03-07T21:26:54.036Z,95.56
2023-03-07T21:28:56.777Z,95.45
2023-03-07T21:31:00.319Z,95.34
2023-03-07T21:33:01.815Z,95.49
2023-03-07T21:35:04.227Z,95.81
2023-03-07T21:37:05.675Z,95.78
2023-03-07T21:39:09.756Z,95.71
2023-03-07T21:41:12.296Z,96.39
2023-03-07T21:43:14.087Z,95.86
2023-03-07T21:45:15.594Z,96.10
2023-03-07T21:47:19.937Z,96.23
2023-03-07T21:49:21.553Z,96.38
2023-03-07T21:51:23.237Z,96.30
2023-03-07T21:53:24.882Z,96.38
2023-03-07T21:55:26.399Z,96.80
2023-03-07T21:57:30.816Z,96.53
2023-03-07T21:59:33.413Z,96.63
2023-03-07T22:01:34.899Z,96.57
2023-03-07T22:03:36.368Z,96.85
2023-03-07T22:05:40.785Z,97.13
2023-03-07T22:07:42.285Z,97.31
2023-03-07T22:09:43.761Z,97.25
2023-03-07T22:11:45.214Z,97.60
2023-03-07T22:13:46.746Z,97.31
2023-03-07T22:15:48.188Z,97.66
2023-03-07T22:17:49.702Z,97.80
2023-03-07T22:19:51.241Z,97.77
2023-03-07T22:21:52.699Z,97.59
2023-03-07T22:24:00.611Z,97.90
2023-03-07T22:26:04.329Z,98.05
2023-03-07T22:28:05.793Z,98.03
2023-03-07T22:30:09.922Z,98.26
2023-03-07T22:32:11.742Z,98.39
2023-03-07T22:34:13.981Z,98.42
2023-03-07T22:36:15.663Z,98.66
2023-03-07T22:38:19.253Z,99.00
2023-03-07T22:40:20.840Z,98.95
2023-03-07T22:42:22.318Z,99.16
2023-03-07T22:44:23.795Z,99.22
2023-03-07T22:46:25.673Z,99.18
2023-03-07T22:48:27.544Z,99.21
2023-03-07T22:50:30.728Z,99.13
2023-03-07T22:52:32.222Z,99.52
2023-03-07T22:54:35.045Z,99.19
2023-03-07T22:56:36.637Z,99.41
2023-03-07T22:58:38.145Z,99.23
2023-03-07T23:00:41.284Z,99.57
2023-03-07T23:02:43.058Z,99.63
2023-03-07T23:04:44.690Z,99.42
2023-03-07T23:06:46.167Z,99.52
2023-03-07T23:08:50.230Z,99.76
2023-03-07T23:10:51.689Z,99.64
2023-03-07T23:12:53.298Z,99.24
2023-03-07T23:14:54.812Z,99.34
2023-03-07T23:16:56.276Z,99.39
2023-03-07T23:18:59.512Z,99.33
2023-03-07T23:21:05.705Z,99.63
2023-03-07T23:23:07.170Z,99.94
2023-03-07T23:25:09.572Z,99.34
2023-03-07T23:27:11.233Z,99.95
2023-03-07T23:29:12.924Z,99.49
2023-03-07T23:31:25.554Z,99.59
2023-03-07T23:33:27.073Z,99.70
2023-03-07T23:35:28.607Z,99.80
2023-03-07T23:37:30.086Z,99.82
2023-03-07T23:39:31.551Z,99.96
2023-03-07T23:41:32.999Z,100.00
2023-03-07T23:43:34.531Z,99.91
2023-03-07T23:45:36.550Z,99.92
2023-03-07T23:47:39.525Z,99.66
2023-03-07T23:49:41.014Z,100.00
2023-03-07T23:51:44.565Z,100.00
2023-03-07T23:53:46.249Z,99.76
2023-03-07T23:55:47.739Z,99.61
2023-03-07T23:57:49.267Z,99.78
2023-03-07T23:59:50.846Z,100.00
